Time;durP1;ratioP1;P1;durP2;ratioP2;P2;SDS_P1;SDS_P2;PMS_P1;PMS_P2;Temp;Humidity;BMP_temperature;BMP_pressure;BME280_temperature;BME280_humidity;BME280_pressure;Samples;Min_cycle;Max_cycle;Signal;HPM_P1;HPM_P2
2024/01/25 00:02:10;;;;;;;33.83;8.10;;;;;;;;;;5100246;28;20445;-81
2024/01/25 00:04:36;;;;;;;42.70;7.87;;;;;;;;;;5118552;28;20406;-81
2024/01/25 00:07:02;;;;;;;33.35;8.23;;;;;;;;;;5118114;28;20405;-81
2024/01/25 00:09:28;;;;;;;52.72;8.20;;;;;;;;;;5118906;28;20201;-81
2024/01/25 00:11:54;;;;;;;48.07;7.63;;;;;;;;;;5118506;28;20557;-81
2024/01/25 00:14:20;;;;;;;36.43;7.53;;;;;;;;;;5100371;28;20398;-81
2024/01/25 00:16:46;;;;;;;44.45;7.63;;;;;;;;;;5118523;28;20410;-81
2024/01/25 00:19:12;;;;;;;42.33;9.43;;;;;;;;;;5118182;28;20186;-82
2024/01/25 00:21:44;;;;;;;47.47;8.63;;;;;;;;;;5118220;28;20490;-81
2024/01/25 00:24:14;;;;;;;43.53;6.75;;;;;;;;;;5118675;28;20413;-82
2024/01/25 00:26:40;;;;;;;33.65;8.23;;;;;;;;;;5118330;28;20203;-81
2024/01/25 00:29:06;;;;;;;37.40;6.80;;;;;;;;;;5118313;28;20176;-81
2024/01/25 00:31:32;;;;;;;36.55;8.57;;;;;;;;;;5099672;28;20177;-81
2024/01/25 00:33:58;;;;;;;38.60;8.05;;;;;;;;;;5099889;28;20207;-81
2024/01/25 00:36:25;;;;;;;41.60;9.20;;;;;;;;;;5117717;28;20191;-81
2024/01/25 00:38:51;;;;;;;44.90;8.75;;;;;;;;;;5118181;28;20193;-81
2024/01/25 00:41:18;;;;;;;36.30;7.45;;;;;;;;;;5118073;28;20507;-81
2024/01/25 00:43:45;;;;;;;26.15;5.03;;;;;;;;;;5118128;28;20180;-81
2024/01/25 00:46:11;;;;;;;37.50;6.03;;;;;;;;;;5116350;28;20191;-82
2024/01/25 00:48:39;;;;;;;32.60;6.85;;;;;;;;;;5097478;28;20247;-81
2024/01/25 00:51:07;;;;;;;37.47;8.30;;;;;;;;;;5078341;28;20185;-81
2024/01/25 00:53:33;;;;;;;28.95;7.05;;;;;;;;;;5097201;28;20556;-81
2024/01/25 00:56:00;;;;;;;41.13;9.23;;;;;;;;;;5097427;28;20171;-81
2024/01/25 00:58:26;;;;;;;35.72;7.07;;;;;;;;;;5078791;28;20194;-81
2024/01/25 01:00:52;;;;;;;42.72;9.38;;;;;;;;;;5078979;28;20172;-81
2024/01/25 01:03:19;;;;;;;32.33;8.05;;;;;;;;;;5096755;28;20176;-81
2024/01/25 01:05:46;;;;;;;47.33;9.93;;;;;;;;;;5078734;28;20245;-81
2024/01/25 01:08:12;;;;;;;30.65;7.15;;;;;;;;;;5097043;28;20186;-82
2024/01/25 01:10:38;;;;;;;31.40;7.90;;;;;;;;;;5097200;28;20176;-82
2024/01/25 01:13:04;;;;;;;39.33;8.68;;;;;;;;;;5096817;28;20203;-81
2024/01/25 01:15:30;;;;;;;30.65;7.90;;;;;;;;;;5096825;28;20176;-81
2024/01/25 01:17:56;;;;;;;28.83;6.20;;;;;;;;;;5096821;28;20258;-81
2024/01/25 01:20:22;;;;;;;33.30;7.70;;;;;;;;;;5096630;28;20391;-81
2024/01/25 01:22:48;;;;;;;45.47;7.53;;;;;;;;;;5096752;28;20909;-81
2024/01/25 01:25:14;;;;;;;40.42;7.65;;;;;;;;;;5078006;28;20405;-82
2024/01/25 01:27:40;;;;;;;39.67;7.30;;;;;;;;;;5101684;28;20526;-81
2024/01/25 01:30:08;;;;;;;27.20;7.13;;;;;;;;;;5097932;28;20420;-81
2024/01/25 01:32:34;;;;;;;42.60;8.05;;;;;;;;;;5096699;28;20450;-82
2024/01/25 01:35:00;;;;;;;29.83;7.37;;;;;;;;;;5096658;28;20188;-81
2024/01/25 01:37:26;;;;;;;34.42;7.68;;;;;;;;;;5096816;28;20452;-81
2024/01/25 01:39:52;;;;;;;49.67;8.97;;;;;;;;;;5096477;28;20172;-81
2024/01/25 01:42:18;;;;;;;28.67;6.88;;;;;;;;;;5077941;28;20422;-81
2024/01/25 01:44:44;;;;;;;47.75;7.95;;;;;;;;;;5096274;28;20224;-81
2024/01/25 01:47:10;;;;;;;39.25;7.95;;;;;;;;;;5096668;28;20204;-81
2024/01/25 01:49:36;;;;;;;36.27;8.13;;;;;;;;;;5102159;28;20219;-81
2024/01/25 01:52:02;;;;;;;33.03;7.23;;;;;;;;;;5116388;28;20530;-81
2024/01/25 01:54:28;;;;;;;28.33;6.40;;;;;;;;;;5116332;28;20404;-82
2024/01/25 01:56:55;;;;;;;29.23;6.82;;;;;;;;;;5116319;28;20262;-81
2024/01/25 01:59:21;;;;;;;43.00;8.50;;;;;;;;;;5116478;28;20175;-82
2024/01/25 02:01:47;;;;;;;37.65;7.82;;;;;;;;;;5116637;28;20176;-81
2024/01/25 02:04:13;;;;;;;46.33;7.70;;;;;;;;;;5098802;28;20177;-81
2024/01/25 02:06:39;;;;;;;41.38;7.80;;;;;;;;;;5115983;28;20406;-81
2024/01/25 02:09:05;;;;;;;36.83;6.32;;;;;;;;;;5116234;28;20657;-81
2024/01/25 02:11:31;;;;;;;39.47;6.95;;;;;;;;;;5115702;28;20187;-81
2024/01/25 02:13:57;;;;;;;48.90;8.87;;;;;;;;;;5116566;28;20219;-81
2024/01/25 02:16:23;;;;;;;41.42;7.65;;;;;;;;;;5116390;28;20735;-82
2024/01/25 02:18:49;;;;;;;47.80;8.10;;;;;;;;;;5092422;28;20193;-81
2024/01/25 02:21:15;;;;;;;36.77;8.70;;;;;;;;;;5097035;28;20740;-81
2024/01/25 02:23:41;;;;;;;46.28;8.15;;;;;;;;;;5116553;28;20408;-81
2024/01/25 02:26:07;;;;;;;34.87;6.90;;;;;;;;;;5116312;28;20176;-81
2024/01/25 02:28:34;;;;;;;45.28;8.50;;;;;;;;;;5115804;28;20401;-81
2024/01/25 02:31:02;;;;;;;34.08;7.40;;;;;;;;;;5116319;28;20174;-81
2024/01/25 02:33:29;;;;;;;35.45;7.00;;;;;;;;;;5116012;28;20692;-81
2024/01/25 02:35:54;;;;;;;43.33;8.10;;;;;;;;;;5115999;28;20268;-81
2024/01/25 02:38:20;;;;;;;44.17;8.32;;;;;;;;;;5116011;28;20633;-82
2024/01/25 02:40:46;;;;;;;43.17;9.53;;;;;;;;;;5116233;28;20236;-81
2024/01/25 02:43:12;;;;;;;42.05;7.10;;;;;;;;;;5115721;28;20427;-81
2024/01/25 02:45:38;;;;;;;36.67;7.97;;;;;;;;;;5116222;28;20176;-81
2024/01/25 02:48:04;;;;;;;41.30;8.00;;;;;;;;;;5115815;28;20520;-81
2024/01/25 02:50:31;;;;;;;37.83;8.27;;;;;;;;;;5116248;28;20784;-81
2024/01/25 02:52:57;;;;;;;31.67;7.35;;;;;;;;;;5116419;28;20204;-81
2024/01/25 02:55:23;;;;;;;41.15;9.57;;;;;;;;;;5115455;28;20205;-82
2024/01/25 02:57:49;;;;;;;48.05;8.27;;;;;;;;;;5097532;28;20611;-81
2024/01/25 03:00:17;;;;;;;38.70;8.38;;;;;;;;;;5115732;28;20179;-81
2024/01/25 03:02:43;;;;;;;30.98;7.43;;;;;;;;;;5115866;28;20176;-81
2024/01/25 03:05:08;;;;;;;34.30;8.10;;;;;;;;;;5115873;28;20163;-81
2024/01/25 03:07:34;;;;;;;50.10;7.30;;;;;;;;;;5115332;28;20482;-81
2024/01/25 03:10:00;;;;;;;30.13;7.72;;;;;;;;;;5115932;28;20503;-81
2024/01/25 03:12:26;;;;;;;44.17;8.17;;;;;;;;;;5115312;28;20239;-82
2024/01/25 03:14:52;;;;;;;38.23;8.53;;;;;;;;;;5119227;28;20928;-81
2024/01/25 03:17:18;;;;;;;48.37;10.20;;;;;;;;;;5101837;28;20420;-81
2024/01/25 03:19:44;;;;;;;34.73;8.80;;;;;;;;;;5119624;28;20495;-81
2024/01/25 03:22:10;;;;;;;46.27;8.53;;;;;;;;;;5100965;28;20762;-81
2024/01/25 03:24:39;;;;;;;37.95;8.40;;;;;;;;;;5119310;28;20401;-81
2024/01/25 03:27:12;;;;;;;43.50;9.10;;;;;;;;;;5119468;28;20689;-81
2024/01/25 03:29:38;;;;;;;44.28;8.90;;;;;;;;;;5119065;28;20190;-81
2024/01/25 03:32:04;;;;;;;53.70;9.93;;;;;;;;;;5119485;28;20538;-81
2024/01/25 03:34:30;;;;;;;39.40;9.40;;;;;;;;;;5119203;28;20404;-81
2024/01/25 03:36:57;;;;;;;43.40;7.97;;;;;;;;;;5100989;28;20171;-81
2024/01/25 03:39:22;;;;;;;42.63;7.63;;;;;;;;;;5119727;28;20167;-82
2024/01/25 03:41:48;;;;;;;45.33;7.80;;;;;;;;;;5115971;28;20193;-81
2024/01/25 03:44:14;;;;;;;45.80;8.67;;;;;;;;;;5099544;28;20487;-81
2024/01/25 03:46:40;;;;;;;34.10;10.30;;;;;;;;;;5098928;28;20612;-81
2024/01/25 03:49:06;;;;;;;28.50;8.03;;;;;;;;;;5098267;28;20436;-81
2024/01/25 03:51:32;;;;;;;48.20;9.00;;;;;;;;;;5079855;28;20445;-81
2024/01/25 03:53:58;;;;;;;30.87;8.93;;;;;;;;;;5080284;28;20440;-81
2024/01/25 03:56:26;;;;;;;37.83;7.27;;;;;;;;;;5097683;28;20918;-82
2024/01/25 03:58:52;;;;;;;58.83;10.02;;;;;;;;;;5098379;28;20408;-81
2024/01/25 04:01:18;;;;;;;51.50;8.50;;;;;;;;;;5098436;28;20179;-81
2024/01/25 04:03:44;;;;;;;43.57;9.83;;;;;;;;;;5098128;28;20406;-81
2024/01/25 04:06:10;;;;;;;50.65;8.45;;;;;;;;;;5080313;28;20402;-81
2024/01/25 04:08:36;;;;;;;37.25;8.80;;;;;;;;;;5080613;28;20233;-81
2024/01/25 04:11:02;;;;;;;48.85;8.93;;;;;;;;;;5098662;28;20183;-82
2024/01/25 04:13:28;;;;;;;50.07;10.17;;;;;;;;;;5118302;28;20221;-81
2024/01/25 04:15:54;;;;;;;48.10;9.43;;;;;;;;;;5118162;28;20767;-81
2024/01/25 04:18:20;;;;;;;35.95;9.40;;;;;;;;;;5100321;28;20417;-81
2024/01/25 04:20:46;;;;;;;37.03;9.40;;;;;;;;;;5118078;28;20236;-81
2024/01/25 04:23:12;;;;;;;33.67;10.23;;;;;;;;;;5100108;28;20420;-81
2024/01/25 04:25:38;;;;;;;29.87;7.50;;;;;;;;;;5116644;28;20175;-81
2024/01/25 04:28:04;;;;;;;35.28;8.35;;;;;;;;;;5118265;28;20495;-81
2024/01/25 04:30:32;;;;;;;36.65;9.23;;;;;;;;;;5118048;28;20187;-82
2024/01/25 04:32:58;;;;;;;33.05;8.60;;;;;;;;;;5117696;28;20543;-82
2024/01/25 04:35:24;;;;;;;48.25;9.45;;;;;;;;;;5099709;28;20203;-80
2024/01/25 04:37:50;;;;;;;42.67;8.47;;;;;;;;;;5117958;28;20171;-82
2024/01/25 04:40:17;;;;;;;41.87;10.10;;;;;;;;;;5118272;28;20409;-82
2024/01/25 04:42:43;;;;;;;38.83;8.82;;;;;;;;;;5117689;28;20414;-82
2024/01/25 04:45:09;;;;;;;40.42;8.50;;;;;;;;;;5118180;28;20168;-82
2024/01/25 04:47:35;;;;;;;45.05;8.70;;;;;;;;;;5117074;28;20168;-82
2024/01/25 04:50:01;;;;;;;37.70;8.30;;;;;;;;;;5118108;28;20223;-82
2024/01/25 04:52:27;;;;;;;38.17;10.17;;;;;;;;;;5099307;28;20786;-82
2024/01/25 04:54:53;;;;;;;40.53;7.90;;;;;;;;;;5099899;28;20434;-82
2024/01/25 04:57:19;;;;;;;37.95;10.30;;;;;;;;;;5117596;28;20451;-81
2024/01/25 04:59:45;;;;;;;34.20;8.55;;;;;;;;;;5082105;28;20776;-82
2024/01/25 05:02:11;;;;;;;52.23;9.47;;;;;;;;;;5117465;28;20631;-81
2024/01/25 05:04:37;;;;;;;21.00;7.27;;;;;;;;;;5109148;28;20740;-82
2024/01/25 05:07:03;;;;;;;30.83;7.60;;;;;;;;;;5103537;28;20409;-82
2024/01/25 05:09:29;;;;;;;41.33;8.90;;;;;;;;;;5116991;28;20398;-82
2024/01/25 05:11:59;;;;;;;30.83;7.03;;;;;;;;;;5117927;28;20225;-82
2024/01/25 05:14:26;;;;;;;32.83;8.68;;;;;;;;;;5099095;28;20417;-82
2024/01/25 05:16:52;;;;;;;37.78;8.60;;;;;;;;;;5117275;28;20169;-82
2024/01/25 05:19:17;;;;;;;41.67;8.90;;;;;;;;;;5117393;28;20175;-82
2024/01/25 05:21:43;;;;;;;28.37;7.57;;;;;;;;;;5116770;28;20437;-82
2024/01/25 05:24:10;;;;;;;26.90;7.80;;;;;;;;;;5099401;28;20412;-81
2024/01/25 05:26:36;;;;;;;39.17;8.25;;;;;;;;;;5117143;28;20389;-82
2024/01/25 05:29:02;;;;;;;33.42;9.05;;;;;;;;;;5116812;28;20638;-82
2024/01/25 05:31:28;;;;;;;29.30;7.05;;;;;;;;;;5117254;28;20187;-82
2024/01/25 05:33:54;;;;;;;37.67;7.37;;;;;;;;;;5117417;28;20214;-82
2024/01/25 05:36:20;;;;;;;37.93;9.03;;;;;;;;;;5116431;28;20500;-82
2024/01/25 05:38:46;;;;;;;37.03;9.23;;;;;;;;;;5117004;28;20400;-82
2024/01/25 05:41:12;;;;;;;31.55;7.15;;;;;;;;;;5117030;28;20420;-81
2024/01/25 05:43:38;;;;;;;41.75;7.60;;;;;;;;;;5116278;28;20178;-82
2024/01/25 05:46:04;;;;;;;30.67;7.43;;;;;;;;;;5116844;28;20175;-82
2024/01/25 05:48:30;;;;;;;42.28;9.73;;;;;;;;;;5116675;28;20453;-82
2024/01/25 05:50:56;;;;;;;35.00;7.97;;;;;;;;;;5116766;28;20221;-82
2024/01/25 05:53:22;;;;;;;27.10;7.73;;;;;;;;;;5116611;28;20499;-82
2024/01/25 05:55:48;;;;;;;34.53;8.90;;;;;;;;;;5116803;28;20413;-81
2024/01/25 05:58:14;;;;;;;37.42;7.90;;;;;;;;;;5104415;28;20181;-82
2024/01/25 06:00:40;;;;;;;36.88;8.85;;;;;;;;;;5096433;28;20524;-82
2024/01/25 06:03:06;;;;;;;34.13;7.50;;;;;;;;;;5096072;28;20259;-82
2024/01/25 06:05:32;;;;;;;25.70;6.45;;;;;;;;;;5096043;28;20402;-82
2024/01/25 06:07:58;;;;;;;29.77;7.10;;;;;;;;;;5096571;28;20175;-82
2024/01/25 06:10:24;;;;;;;35.17;8.13;;;;;;;;;;5096526;28;20409;-82
2024/01/25 06:12:50;;;;;;;34.03;7.93;;;;;;;;;;5095648;28;20454;-82
2024/01/25 06:15:16;;;;;;;31.50;8.20;;;;;;;;;;5096197;28;20745;-82
2024/01/25 06:17:42;;;;;;;52.08;11.20;;;;;;;;;;5096322;28;20418;-82
2024/01/25 06:20:10;;;;;;;38.60;8.70;;;;;;;;;;5096250;28;20190;-81
2024/01/25 06:22:36;;;;;;;35.70;8.85;;;;;;;;;;5096187;28;20397;-80
2024/01/25 06:25:03;;;;;;;29.83;8.50;;;;;;;;;;5096523;28;20168;-81
2024/01/25 06:27:29;;;;;;;53.05;9.40;;;;;;;;;;5096154;28;20405;-81
2024/01/25 06:29:55;;;;;;;34.88;7.88;;;;;;;;;;5096354;28;20205;-81
2024/01/25 06:32:21;;;;;;;33.95;7.78;;;;;;;;;;5096304;28;20196;-82
2024/01/25 06:34:47;;;;;;;30.33;9.07;;;;;;;;;;5107277;28;20286;-82
2024/01/25 06:37:15;;;;;;;36.42;7.55;;;;;;;;;;5115463;28;20401;-82
2024/01/25 06:39:41;;;;;;;47.00;9.80;;;;;;;;;;5115922;28;20171;-82
2024/01/25 06:42:07;;;;;;;32.80;9.77;;;;;;;;;;5097704;28;20188;-82
2024/01/25 06:44:33;;;;;;;29.15;8.00;;;;;;;;;;5115817;28;20487;-83
2024/01/25 06:46:59;;;;;;;32.20;7.93;;;;;;;;;;5115748;28;20571;-83
2024/01/25 06:49:25;;;;;;;31.83;8.50;;;;;;;;;;5119316;28;20470;-82
2024/01/25 06:51:51;;;;;;;30.37;8.90;;;;;;;;;;5120511;28;20401;-82
2024/01/25 06:54:17;;;;;;;38.67;8.63;;;;;;;;;;5120230;28;20413;-82
2024/01/25 06:56:43;;;;;;;42.60;9.23;;;;;;;;;;5120004;28;20441;-82
2024/01/25 06:59:09;;;;;;;25.63;8.67;;;;;;;;;;5109079;28;20181;-82
2024/01/25 07:01:35;;;;;;;24.90;7.77;;;;;;;;;;5100608;28;20410;-82
2024/01/25 07:04:01;;;;;;;48.83;9.80;;;;;;;;;;5099823;28;20897;-82
2024/01/25 07:06:28;;;;;;;33.20;8.85;;;;;;;;;;5099011;28;20218;-82
2024/01/25 07:08:54;;;;;;;39.33;8.32;;;;;;;;;;5081561;28;20168;-82
2024/01/25 07:11:21;;;;;;;34.13;7.72;;;;;;;;;;5099602;28;20175;-82
2024/01/25 07:13:47;;;;;;;43.15;9.43;;;;;;;;;;5099068;28;20206;-82
2024/01/25 07:16:13;;;;;;;30.63;8.35;;;;;;;;;;5081310;28;20612;-83
2024/01/25 07:18:38;;;;;;;40.88;8.13;;;;;;;;;;5106138;28;20183;-82
2024/01/25 07:21:05;;;;;;;35.57;8.00;;;;;;;;;;5113743;28;20241;-82
2024/01/25 07:23:31;;;;;;;33.00;8.07;;;;;;;;;;5099817;28;20410;-82
2024/01/25 07:25:57;;;;;;;47.58;10.20;;;;;;;;;;5080756;28;20175;-81
2024/01/25 07:28:24;;;;;;;31.17;8.83;;;;;;;;;;5098763;28;20179;-82
2024/01/25 07:30:50;;;;;;;36.28;8.48;;;;;;;;;;5098479;28;20491;-82
2024/01/25 07:33:16;;;;;;;49.03;9.10;;;;;;;;;;5099050;28;20614;-82
2024/01/25 07:35:45;;;;;;;47.63;9.65;;;;;;;;;;5081209;28;20421;-82
2024/01/25 07:38:14;;;;;;;35.33;10.32;;;;;;;;;;5105924;28;20278;-82
2024/01/25 07:40:40;;;;;;;37.78;10.20;;;;;;;;;;5118996;28;20206;-82
2024/01/25 07:43:06;;;;;;;37.22;7.57;;;;;;;;;;5119325;28;20522;-82
2024/01/25 07:45:33;;;;;;;28.98;6.65;;;;;;;;;;5100831;28;20174;-82
2024/01/25 07:47:59;;;;;;;32.42;9.63;;;;;;;;;;5118720;28;20171;-81
2024/01/25 07:50:25;;;;;;;41.25;8.18;;;;;;;;;;5119066;28;20565;-82
2024/01/25 07:52:51;;;;;;;33.75;8.63;;;;;;;;;;5118886;28;20206;-82
2024/01/25 07:55:17;;;;;;;40.63;10.38;;;;;;;;;;5119225;28;20333;-82
2024/01/25 07:57:43;;;;;;;40.25;8.68;;;;;;;;;;5118744;28;20172;-82
2024/01/25 08:00:09;;;;;;;32.37;8.67;;;;;;;;;;5119126;28;20182;-82
2024/01/25 08:02:38;;;;;;;31.30;8.75;;;;;;;;;;5100944;28;20742;-82
2024/01/25 08:05:04;;;;;;;47.72;10.52;;;;;;;;;;5118805;28;20175;-82
2024/01/25 08:07:30;;;;;;;49.50;14.27;;;;;;;;;;5108422;28;20184;-82
2024/01/25 08:09:58;;;;;;;40.83;13.23;;;;;;;;;;5098800;28;20185;-82
2024/01/25 08:12:24;;;;;;;35.80;9.90;;;;;;;;;;5098463;28;20226;-82
2024/01/25 08:14:50;;;;;;;36.60;11.38;;;;;;;;;;5110858;28;20581;-82
2024/01/25 08:17:16;;;;;;;35.83;12.03;;;;;;;;;;5098437;28;20224;-82
2024/01/25 08:19:42;;;;;;;58.27;13.23;;;;;;;;;;5098272;28;20409;-82
2024/01/25 08:22:09;;;;;;;42.90;11.43;;;;;;;;;;5098357;28;20414;-82
2024/01/25 08:24:35;;;;;;;34.97;12.38;;;;;;;;;;5098096;28;20933;-82
2024/01/25 08:27:01;;;;;;;42.88;9.55;;;;;;;;;;5097639;28;20176;-82
2024/01/25 08:29:27;;;;;;;42.25;10.35;;;;;;;;;;5098335;28;20267;-82
2024/01/25 08:31:53;;;;;;;28.30;9.35;;;;;;;;;;5111174;28;20171;-82
2024/01/25 08:34:21;;;;;;;48.30;10.13;;;;;;;;;;5118865;28;20579;-82
2024/01/25 08:36:47;;;;;;;61.53;13.38;;;;;;;;;;5118232;28;20409;-82
2024/01/25 08:39:13;;;;;;;59.20;11.93;;;;;;;;;;5120860;22;20245;-81
2024/01/25 08:41:39;;;;;;;40.10;11.23;;;;;;;;;;5077500;28;20412;-81
2024/01/25 08:44:05;;;;;;;41.65;12.07;;;;;;;;;;5077776;28;20514;-81
2024/01/25 08:46:31;;;;;;;40.40;12.60;;;;;;;;;;5077458;28;20184;-81
2024/01/25 08:48:57;;;;;;;51.10;14.17;;;;;;;;;;5077489;28;20405;-80
2024/01/25 08:51:23;;;;;;;50.17;13.40;;;;;;;;;;5077738;28;20783;-80
2024/01/25 08:53:51;;;;;;;40.03;13.27;;;;;;;;;;5077296;28;20464;-81
2024/01/25 08:56:17;;;;;;;40.60;13.75;;;;;;;;;;5077571;28;20416;-81
2024/01/25 08:58:43;;;;;;;54.25;15.38;;;;;;;;;;5076954;28;20180;-81
2024/01/25 09:01:09;;;;;;;50.13;15.70;;;;;;;;;;5059469;28;20246;-81
2024/01/25 09:03:35;;;;;;;42.33;14.87;;;;;;;;;;5083906;28;20177;-81
2024/01/25 09:06:05;;;;;;;48.42;14.70;;;;;;;;;;5097364;28;20792;-81
2024/01/25 09:08:31;;;;;;;54.65;13.90;;;;;;;;;;5097442;28;20172;-81
2024/01/25 09:10:58;;;;;;;43.38;17.30;;;;;;;;;;5096631;28;20546;-81
2024/01/25 09:13:24;;;;;;;48.03;15.30;;;;;;;;;;5090483;28;20219;-81
2024/01/25 09:15:50;;;;;;;47.90;14.40;;;;;;;;;;5077031;28;20177;-81
2024/01/25 09:18:16;;;;;;;57.00;17.90;;;;;;;;;;5076722;28;20672;-80
2024/01/25 09:20:47;;;;;;;61.93;17.40;;;;;;;;;;5077141;28;20773;-81
2024/01/25 09:23:13;;;;;;;62.17;17.63;;;;;;;;;;5076769;28;20417;-81
2024/01/25 09:25:39;;;;;;;55.10;16.55;;;;;;;;;;5076732;28;20180;-80
2024/01/25 09:28:05;;;;;;;40.05;15.25;;;;;;;;;;5076430;28;20583;-81
2024/01/25 09:30:31;;;;;;;47.00;17.30;;;;;;;;;;5077032;28;20184;-81
2024/01/25 09:32:57;;;;;;;59.73;17.53;;;;;;;;;;5076671;28;20199;-80
2024/01/25 09:35:23;;;;;;;65.30;16.73;;;;;;;;;;5076102;28;20431;-81
2024/01/25 09:37:52;;;;;;;57.25;17.88;;;;;;;;;;5076091;28;20177;-81
2024/01/25 09:40:20;;;;;;;49.42;15.45;;;;;;;;;;5081098;28;20294;-81
2024/01/25 09:42:47;;;;;;;48.67;14.52;;;;;;;;;;5076092;28;20262;-80
2024/01/25 09:45:17;;;;;;;58.22;17.27;;;;;;;;;;5076382;28;20274;-80
2024/01/25 09:47:43;;;;;;;50.40;17.00;;;;;;;;;;5076029;28;20177;-82
2024/01/25 09:50:09;;;;;;;63.47;16.90;;;;;;;;;;5076005;28;20184;-81
2024/01/25 09:52:36;;;;;;;47.95;16.88;;;;;;;;;;5075636;28;20293;-81
2024/01/25 09:55:02;;;;;;;53.65;17.98;;;;;;;;;;5075959;28;20183;-80
2024/01/25 09:57:28;;;;;;;56.08;17.65;;;;;;;;;;5076257;28;20263;-80
2024/01/25 09:59:55;;;;;;;54.05;16.05;;;;;;;;;;5075662;28;20180;-81
2024/01/25 10:02:21;;;;;;;57.10;17.88;;;;;;;;;;5076370;28;20176;-80
2024/01/25 10:04:53;;;;;;;49.35;16.40;;;;;;;;;;5071575;28;20225;-81
2024/01/25 10:07:38;;;;;;;44.78;15.30;;;;;;;;;;5076058;28;20679;-81
2024/01/25 10:10:05;;;;;;;50.33;17.65;;;;;;;;;;5075372;28;20207;-81
2024/01/25 10:12:31;;;;;;;61.20;17.15;;;;;;;;;;5057976;28;20719;-81
2024/01/25 10:14:57;;;;;;;48.67;15.93;;;;;;;;;;5075764;28;20219;-81
2024/01/25 10:17:23;;;;;;;47.43;15.10;;;;;;;;;;5075422;28;20185;-81
2024/01/25 10:19:49;;;;;;;56.63;17.07;;;;;;;;;;5074977;28;20411;-81
2024/01/25 10:22:15;;;;;;;50.77;16.50;;;;;;;;;;5075134;28;20411;-81
2024/01/25 10:24:41;;;;;;;50.05;14.52;;;;;;;;;;5075660;28;20529;-81
2024/01/25 10:27:07;;;;;;;42.85;15.90;;;;;;;;;;5075164;28;20203;-81
2024/01/25 10:29:35;;;;;;;47.97;15.75;;;;;;;;;;5075365;28;20686;-80
2024/01/25 10:32:01;;;;;;;56.72;16.38;;;;;;;;;;5075020;28;20240;-81
2024/01/25 10:34:28;;;;;;;34.88;14.75;;;;;;;;;;5075674;28;20659;-80
2024/01/25 10:36:54;;;;;;;44.35;15.57;;;;;;;;;;5075502;28;20176;-81
2024/01/25 10:39:21;;;;;;;36.43;13.87;;;;;;;;;;5075047;28;20236;-80
2024/01/25 10:41:50;;;;;;;39.42;15.30;;;;;;;;;;5075247;28;20457;-81
2024/01/25 10:44:19;;;;;;;33.65;12.05;;;;;;;;;;5074992;28;20194;-80
2024/01/25 10:46:49;;;;;;;33.53;12.25;;;;;;;;;;5074929;28;20204;-80
2024/01/25 10:49:15;;;;;;;29.98;12.80;;;;;;;;;;5075450;28;20671;-80
2024/01/25 10:51:42;;;;;;;38.90;11.82;;;;;;;;;;5063842;28;20192;-80
2024/01/25 10:54:08;;;;;;;38.08;12.23;;;;;;;;;;5074540;28;20228;-81
2024/01/25 10:56:53;;;;;;;28.05;11.02;;;;;;;;;;5071425;28;20181;-81
2024/01/25 10:59:19;;;;;;;31.70;12.70;;;;;;;;;;5054898;28;20272;-81
2024/01/25 11:01:45;;;;;;;39.78;12.43;;;;;;;;;;5055105;28;20220;-81
2024/01/25 11:04:16;;;;;;;37.60;13.02;;;;;;;;;;5054990;28;20219;-80
2024/01/25 11:06:43;;;;;;;31.70;11.98;;;;;;;;;;5054711;28;20173;-80
2024/01/25 11:09:09;;;;;;;38.05;10.55;;;;;;;;;;5053920;28;20186;-81
2024/01/25 11:11:37;;;;;;;36.25;12.55;;;;;;;;;;5064469;28;20196;-81
2024/01/25 11:14:03;;;;;;;31.92;11.85;;;;;;;;;;5074507;28;20201;-81
2024/01/25 11:16:29;;;;;;;34.35;11.15;;;;;;;;;;5074538;28;20177;-81
2024/01/25 11:18:58;;;;;;;36.55;11.77;;;;;;;;;;5074047;28;20644;-81
2024/01/25 11:22:00;;;;;;;39.50;11.55;;;;;;;;;;5074614;28;20635;-81
2024/01/25 11:24:26;;;;;;;30.52;10.77;;;;;;;;;;4993105;28;20189;-80
2024/01/25 11:26:52;;;;;;;32.65;10.20;;;;;;;;;;5057429;28;20185;-81
2024/01/25 11:29:22;;;;;;;25.80;9.83;;;;;;;;;;5074196;28;20180;-81
2024/01/25 11:31:48;;;;;;;28.73;10.33;;;;;;;;;;5074021;28;20497;-81
2024/01/25 11:34:15;;;;;;;26.23;9.87;;;;;;;;;;5075160;28;20924;-80
2024/01/25 11:36:42;;;;;;;23.47;9.43;;;;;;;;;;5077850;28;20502;-81
2024/01/25 11:39:15;;;;;;;28.70;9.67;;;;;;;;;;5077480;28;21038;-80
2024/01/25 11:41:42;;;;;;;26.83;9.50;;;;;;;;;;5078058;28;20404;-81
2024/01/25 11:44:09;;;;;;;25.90;8.93;;;;;;;;;;5070113;28;20438;-81
2024/01/25 11:46:35;;;;;;;38.97;9.63;;;;;;;;;;5058043;28;20451;-81
2024/01/25 11:49:01;;;;;;;28.77;9.93;;;;;;;;;;5057396;28;20766;-81
2024/01/25 11:51:28;;;;;;;31.50;10.17;;;;;;;;;;5057615;28;20196;-81
2024/01/25 11:53:54;;;;;;;33.50;9.67;;;;;;;;;;5057323;28;20544;-81
2024/01/25 11:56:31;;;;;;;23.90;8.73;;;;;;;;;;5060185;28;20440;-80
2024/01/25 11:58:57;;;;;;;28.80;8.53;;;;;;;;;;5056652;28;20404;-81
2024/01/25 12:01:26;;;;;;;28.47;7.53;;;;;;;;;;5057613;28;20404;-81
2024/01/25 12:03:52;;;;;;;31.00;8.93;;;;;;;;;;5057471;28;20436;-82
2024/01/25 12:06:18;;;;;;;36.97;9.90;;;;;;;;;;5057149;28;20475;-80
2024/01/25 12:08:46;;;;;;;31.13;8.03;;;;;;;;;;5070955;28;20429;-80
2024/01/25 12:11:12;;;;;;;32.97;7.93;;;;;;;;;;5071490;28;20494;-80
2024/01/25 12:13:42;;;;;;;24.50;7.90;;;;;;;;;;5076965;28;20458;-81
2024/01/25 12:16:11;;;;;;;24.13;8.30;;;;;;;;;;5077164;28;20418;-81
2024/01/25 12:18:38;;;;;;;17.20;7.13;;;;;;;;;;5077042;28;20399;-81
2024/01/25 12:21:04;;;;;;;32.03;8.27;;;;;;;;;;5077257;28;20396;-80
2024/01/25 12:23:34;;;;;;;27.90;8.10;;;;;;;;;;5077359;28;20411;-80
2024/01/25 12:26:01;;;;;;;29.23;7.50;;;;;;;;;;5077062;28;20400;-81
2024/01/25 12:28:28;;;;;;;20.57;6.90;;;;;;;;;;5077016;28;20403;-80
2024/01/25 12:30:54;;;;;;;22.97;7.27;;;;;;;;;;5076401;28;20415;-81
2024/01/25 12:33:20;;;;;;;20.47;7.30;;;;;;;;;;5077271;28;20469;-80
2024/01/25 12:35:46;;;;;;;25.40;7.53;;;;;;;;;;5077364;28;20404;-81
2024/01/25 12:38:12;;;;;;;18.47;6.03;;;;;;;;;;5076599;28;21129;-81
2024/01/25 12:40:38;;;;;;;24.83;6.20;;;;;;;;;;5069769;28;20475;-81
2024/01/25 12:43:04;;;;;;;23.67;6.53;;;;;;;;;;5077360;28;20423;-81
2024/01/25 12:45:30;;;;;;;20.60;6.30;;;;;;;;;;5075820;28;20404;-81
2024/01/25 12:47:56;;;;;;;31.83;6.90;;;;;;;;;;5076242;28;20400;-81
2024/01/25 12:50:22;;;;;;;22.90;7.53;;;;;;;;;;5059627;28;20425;-80
2024/01/25 12:52:49;;;;;;;24.90;6.90;;;;;;;;;;5056408;28;20829;-80
2024/01/25 12:55:15;;;;;;;17.47;6.53;;;;;;;;;;5072596;28;20415;-81
2024/01/25 12:57:41;;;;;;;21.97;6.30;;;;;;;;;;5076582;28;20959;-80
2024/01/25 13:00:07;;;;;;;26.73;6.07;;;;;;;;;;5076768;28;20417;-81
2024/01/25 13:02:33;;;;;;;21.65;5.50;;;;;;;;;;5061039;28;20416;-80
2024/01/25 13:04:59;;;;;;;25.17;7.90;;;;;;;;;;5056136;28;20180;-81
2024/01/25 13:07:25;;;;;;;27.40;6.47;;;;;;;;;;5068127;28;20505;-81
2024/01/25 13:09:51;;;;;;;26.23;7.70;;;;;;;;;;5076015;28;20432;-81
2024/01/25 13:12:17;;;;;;;24.63;6.07;;;;;;;;;;5083479;28;20458;-81
2024/01/25 13:14:43;;;;;;;20.73;6.57;;;;;;;;;;5076182;28;20498;-81
2024/01/25 13:17:09;;;;;;;18.97;5.80;;;;;;;;;;5075919;28;20914;-81
2024/01/25 13:19:35;;;;;;;19.97;6.03;;;;;;;;;;5076295;28;20494;-81
2024/01/25 13:22:01;;;;;;;20.20;6.17;;;;;;;;;;5075309;28;20442;-81
2024/01/25 13:24:27;;;;;;;26.93;8.67;;;;;;;;;;5075585;28;20419;-81
2024/01/25 13:26:53;;;;;;;25.30;5.70;;;;;;;;;;5075998;28;20458;-81
2024/01/25 13:29:19;;;;;;;23.13;6.33;;;;;;;;;;5075643;28;20412;-81
2024/01/25 13:31:45;;;;;;;26.93;6.47;;;;;;;;;;5076191;28;20399;-81
2024/01/25 13:34:11;;;;;;;18.53;5.43;;;;;;;;;;5075594;28;20494;-80
2024/01/25 13:36:37;;;;;;;22.00;5.40;;;;;;;;;;5075882;28;20985;-81
2024/01/25 13:39:03;;;;;;;23.00;6.13;;;;;;;;;;5075921;28;20514;-81
2024/01/25 13:41:29;;;;;;;21.63;6.30;;;;;;;;;;5076301;28;20403;-80
2024/01/25 13:43:55;;;;;;;32.10;6.30;;;;;;;;;;5075712;28;20404;-81
2024/01/25 13:46:21;;;;;;;19.70;5.93;;;;;;;;;;5075807;28;20399;-81
2024/01/25 13:48:47;;;;;;;20.43;5.67;;;;;;;;;;5043138;28;20412;-81
2024/01/25 13:51:13;;;;;;;20.00;6.33;;;;;;;;;;5055453;28;20435;-81
2024/01/25 13:53:39;;;;;;;19.37;5.83;;;;;;;;;;5063744;28;20462;-81
2024/01/25 13:56:05;;;;;;;18.07;5.97;;;;;;;;;;5075427;28;20460;-81
2024/01/25 13:58:31;;;;;;;19.63;6.30;;;;;;;;;;5075064;28;20443;-81
2024/01/25 14:00:57;;;;;;;25.70;5.83;;;;;;;;;;5075833;28;20415;-80
2024/01/25 14:03:23;;;;;;;21.57;5.97;;;;;;;;;;5075179;28;20771;-81
2024/01/25 14:05:49;;;;;;;27.23;7.03;;;;;;;;;;5075832;28;20399;-81
2024/01/25 14:08:16;;;;;;;22.40;5.90;;;;;;;;;;5075115;28;20564;-81
2024/01/25 14:10:42;;;;;;;20.40;7.00;;;;;;;;;;5075414;28;20464;-81
2024/01/25 14:13:08;;;;;;;20.53;5.87;;;;;;;;;;5077925;28;20549;-81
2024/01/25 14:15:34;;;;;;;17.20;5.57;;;;;;;;;;5095355;28;20414;-81
2024/01/25 14:18:01;;;;;;;15.47;4.90;;;;;;;;;;5077097;28;20406;-81
2024/01/25 14:20:26;;;;;;;22.30;5.70;;;;;;;;;;5095563;28;20914;-81
2024/01/25 14:22:52;;;;;;;24.93;6.30;;;;;;;;;;5077811;28;20405;-81